Details From KFAT - Fresno Air Terminal
To KOAK - Metro Oakland Intl
Flight Number -
Tags decoded
Created
Modified
Stats Distance 133 nm / 246 km
Max Altitude 0 ft / 0 m
Waypoints 7
Social Downloads 2
Likes 0
Share VATSIM

Download

Looking for another format? Having issues loading an existing format? Contact us
Advertisement - Login to hide

Notes

Requested: KFAT MORLA HATXI NUPUZ VOLTA BONNS KOAK

Route

KFAT MORLA HATXI NUPUZ VOLTA BONNS KOAK

ID Type Via Altitude Latitude Longitude Leg Dist Tot Dist Heading (true) Name
O KFAT APT - 0 ft / 0 m 36.77651˚ -119.71897˚ - 0 nm - Fresno Air Terminal
MORLA FIX - 0 ft / 0 m 36.88429˚ -119.90631˚ 11 nm 11 nm 306° / 306° -
HATXI FIX - 0 ft / 0 m 36.92428˚ -120.03244˚ 6 nm 17 nm 292° / 292° -
NUPUZ FIX - 0 ft / 0 m 37.11106˚ -120.55889˚ 27 nm 45 nm 294° / 294° -
VOLTA FIX - 0 ft / 0 m 37.27423˚ -120.97343˚ 22 nm 67 nm 296° / 296° -
BONNS FIX - 0 ft / 0 m 37.43641˚ -121.47891˚ 26 nm 93 nm 292° / 292° -
O KOAK APT - 0 ft / 0 m 37.72482˚ -122.21952˚ 39 nm 132 nm 296° / 296° Metro Oakland Intl

Altitude Profile

Advertisement - Login to hide

KFAT

Details ICAO KFAT (FAT)
Name Fresno Air Terminal
Region United States
Timezone America/Los_Angeles (UTC-7.0)
Stats Elevation 335 ft / 102 m (AMSL)
Location 36.776514° -119.718966°
Runways 2
Magnetic Variation 12.790° E

METAR

KFAT 240953Z 31009KT 10SM CLR 15/09 A2992 RMK AO2 SLP129 T01500094

Decode

TAF

TAF KFAT 240520Z 2406/2506 31010KT P6SM SCT200= TAF KGDV 240520Z 2406/2506 VRB03KT P6SM SCT110 FM241200 23005KT P6SM BKN030 FM241500 25009KT P6SM SCT021 FM242200 28012KT P6SM SCT060 FM250300 26006KT P6SM FEW100

Decode

Departure Runways

ID Width Length Bearing (true) Bearing (mag) Surface Threshold Offset Overrun Length
11L 150 ft / 46 m 9,242 ft / 2,817 m 125.47° 112.68° Asphalt 0 ft / 0 m 1,066 ft / 325 m
11R 150 ft / 46 m 8,010 ft / 2,441 m 125.49° 112.70° Asphalt 0 ft / 0 m 1,001 ft / 305 m
29L 150 ft / 46 m 8,010 ft / 2,441 m 305.50° 292.71° Asphalt 0 ft / 0 m 1,001 ft / 305 m
29R 150 ft / 46 m 9,242 ft / 2,817 m 305.49° 292.70° Asphalt 312 ft / 95 m 850 ft / 259 m

KOAK

Details ICAO KOAK (OAK)
Name Metro Oakland Intl
Region United States
Timezone America/Los_Angeles (UTC-7.0)
Stats Elevation 9 ft / 3 m (AMSL)
Location 37.724824° -122.219516°
Runways 4
Magnetic Variation 13.421° E

METAR

KOAK 241037Z 27011KT 10SM OVC014 12/09 A3002 RMK AO2 T01220089

Decode

TAF

KOAK 240522Z 2406/2512 26009KT P6SM OVC014 FM241730 25010KT P6SM SCT018 SCT070 BKN180 FM242100 26014G19KT P6SM SCT030 SCT050 BKN100 FM250300 26012KT P6SM VCSH SCT030 BKN100 FM250700 26010KT P6SM VCSH BKN040 OVC100

Decode

Destination Runways

ID Width Length Bearing (true) Bearing (mag) Surface Threshold Offset Overrun Length
09L 151 ft / 46 m 5,445 ft / 1,660 m 112.24° 98.82° Asphalt 0 ft / 0 m 0 ft / 0 m
09R 151 ft / 46 m 6,203 ft / 1,891 m 112.24° 98.82° Asphalt 0 ft / 0 m 0 ft / 0 m
11 151 ft / 46 m 9,996 ft / 3,047 m 130.11° 116.69° Asphalt 0 ft / 0 m 400 ft / 122 m
15 75 ft / 23 m 3,378 ft / 1,030 m 164.49° 151.07° Asphalt 0 ft / 0 m 0 ft / 0 m
27L 151 ft / 46 m 6,203 ft / 1,891 m 292.25° 278.83° Asphalt 0 ft / 0 m 112 ft / 34 m
27R 151 ft / 46 m 5,445 ft / 1,660 m 292.25° 278.83° Asphalt 0 ft / 0 m 0 ft / 0 m
29 151 ft / 46 m 9,996 ft / 3,047 m 310.13° 296.71° Asphalt 0 ft / 0 m 499 ft / 152 m
33 75 ft / 23 m 3,378 ft / 1,030 m 344.49° 331.07° Asphalt 0 ft / 0 m 0 ft / 0 m

Approach Navaids

Runway Type Ident Frequency Range Bearing (true) Bearing (mag) Slope Elevation
11 Localiser IAAZ 111.90 MHz 18 nm / 33 km 130.16° 116.74° - 6 ft / 2 m (AMSL)
11 Glidescope IAAZ 111.90 MHz 10 nm / 19 km 130.12° 116.70° 2.75° 4 ft / 1 m (AMSL)
27R Localiser IOAK 109.90 MHz 18 nm / 33 km 292.20° 278.78° - 3 ft / 1 m (AMSL)
27R Glidescope IOAK 109.90 MHz 10 nm / 19 km 292.24° 278.82° 2.90° 3 ft / 1 m (AMSL)
29 Localiser IINB 108.70 MHz 18 nm / 33 km 310.08° 296.66° - 9 ft / 3 m (AMSL)
29 Glidescope IINB 108.70 MHz 10 nm / 19 km 310.12° 296.70° 3.00° 5 ft / 2 m (AMSL)

Popular Alternatives